Todd, Minnesota
Current Conditions -  °F | °C
As of 3:53 PM on Wednesday 26 Nov 2014 (Local Time) from KPKD Reporting Station
Clear Clear  
Wind Chill: -6°   Ceiling: Unl
Heat Index:   Visibility: 10mi
Dew Point: -8°   Wind: 12mph
Humidity: 46%   Direction: 330°NNW
Pressure: 30.31"   Gusts: NA
Location:  46.9966°N, 95.0029°W
Report Text: KPKD 262153Z AUTO 33010KT 10SM CLR M13/M22 A3031 RMK AO2 SLP297 T11281222
Loading
Personal Weather Stations






























Interactive Weather Map New forecast layout! Learn more

10-Day Weather Forecast

Advertisements
Track Severe Weather on mobile